Time;durP1;ratioP1;P1;durP2;ratioP2;P2;SDS_P1;SDS_P2;PMS_P1;PMS_P2;Temp;Humidity;BMP_temperature;BMP_pressure;BME280_temperature;BME280_humidity;BME280_pressure;Samples;Min_cycle;Max_cycle;Signal;HPM_P1;HPM_P2
2021/10/31 00:01:31;;;;;;;6.10;5.50;;;12.20;99.30;;;;;;5088550;28;20206;-51
2021/10/31 00:03:58;;;;;;;7.57;6.80;;;12.20;99.50;;;;;;5083602;28;20206;-52
2021/10/31 00:06:26;;;;;;;8.98;6.60;;;12.20;99.40;;;;;;5080981;28;20205;-53
2021/10/31 00:08:53;;;;;;;6.78;6.05;;;12.20;99.40;;;;;;5080447;28;20268;-46
2021/10/31 00:11:20;;;;;;;7.30;6.47;;;12.20;99.60;;;;;;5080447;28;20397;-50
2021/10/31 00:13:48;;;;;;;13.68;5.78;;;12.30;99.60;;;;;;5084465;28;20222;-51
2021/10/31 00:16:15;;;;;;;8.75;7.10;;;12.10;99.80;;;;;;5081885;28;20203;-50
2021/10/31 00:18:43;;;;;;;7.13;6.32;;;12.10;99.90;;;;;;5085116;28;20205;-53
2021/10/31 00:21:10;;;;;;;9.25;6.47;;;12.20;99.90;;;;;;5081440;28;20248;-46
2021/10/31 00:23:37;;;;;;;11.25;6.45;;;12.20;99.90;;;;;;5079555;28;20198;-49
2021/10/31 00:26:05;;;;;;;7.78;6.32;;;12.10;99.90;;;;;;5088592;28;20202;-48
2021/10/31 00:28:32;;;;;;;8.13;5.93;;;12.10;99.90;;;;;;5084432;28;20205;-48
2021/10/31 00:30:59;;;;;;;8.52;6.57;;;12.00;99.90;;;;;;5090919;28;20267;-53
2021/10/31 00:33:27;;;;;;;7.00;5.25;;;12.00;99.90;;;;;;5085600;28;20614;-54
2021/10/31 00:35:55;;;;;;;9.57;6.78;;;12.00;99.90;;;;;;5086586;28;20393;-48
2021/10/31 00:38:22;;;;;;;8.70;5.53;;;12.00;99.90;;;;;;5085904;28;20206;-53
2021/10/31 00:40:50;;;;;;;7.00;6.20;;;12.00;99.90;;;;;;5081053;28;20226;-46
2021/10/31 00:43:17;;;;;;;7.70;6.28;;;12.00;99.90;;;;;;5079931;28;20524;-48
2021/10/31 00:45:45;;;;;;;8.27;6.00;;;12.00;99.90;;;;;;5087098;28;20512;-49
2021/10/31 00:48:12;;;;;;;7.50;6.75;;;12.10;99.90;;;;;;5080387;28;20444;-50
2021/10/31 00:50:40;;;;;;;8.75;6.30;;;12.10;99.90;;;;;;5085460;28;20261;-52
2021/10/31 00:53:07;;;;;;;6.35;5.82;;;12.20;99.90;;;;;;5095699;28;20229;-51
2021/10/31 00:55:38;;;;;;;8.30;6.10;;;12.20;99.90;;;;;;5084799;28;20206;-53
2021/10/31 00:58:07;;;;;;;6.40;5.80;;;12.20;99.90;;;;;;5078961;28;20195;-51
2021/10/31 01:00:35;;;;;;;8.35;6.45;;;12.10;99.90;;;;;;5079488;28;20214;-51
2021/10/31 01:03:02;;;;;;;11.73;6.78;;;12.10;99.90;;;;;;5079811;28;20203;-51
2021/10/31 01:05:36;;;;;;;9.07;7.07;;;12.20;99.90;;;;;;5081620;28;20211;-51
2021/10/31 01:08:38;;;;;;;7.72;6.85;;;12.20;99.90;;;;;;5082059;28;20255;-49
2021/10/31 01:11:09;;;;;;;10.23;6.03;;;12.20;99.90;;;;;;5078323;28;20522;-51
2021/10/31 01:13:42;;;;;;;8.98;5.57;;;12.10;99.90;;;;;;5088498;28;20226;-48
2021/10/31 01:16:15;;;;;;;9.77;6.28;;;12.10;99.90;;;;;;5084225;28;20396;-49
2021/10/31 01:18:59;;;;;;;9.93;6.68;;;12.10;99.90;;;;;;5086690;28;20195;-48
2021/10/31 01:21:54;;;;;;;8.93;6.15;;;12.00;99.90;;;;;;5086850;28;20207;-49
2021/10/31 01:24:39;;;;;;;7.45;6.00;;;12.00;99.90;;;;;;5080994;28;20476;-48
2021/10/31 01:28:01;;;;;;;12.50;6.63;;;12.10;99.90;;;;;;5087306;28;20199;-50
2021/10/31 01:30:47;;;;;;;8.52;6.85;;;12.00;99.90;;;;;;5042644;28;20221;-51
2021/10/31 01:33:32;;;;;;;7.78;6.30;;;11.90;99.90;;;;;;5089093;28;20678;-48
2021/10/31 01:36:04;;;;;;;7.78;6.05;;;11.80;99.90;;;;;;5085689;28;20201;-51
2021/10/31 01:38:49;;;;;;;8.77;6.93;;;11.80;99.90;;;;;;5087179;28;20250;-48
2021/10/31 01:41:25;;;;;;;6.88;5.90;;;11.80;99.90;;;;;;5087875;28;20209;-47
2021/10/31 01:44:05;;;;;;;8.35;6.22;;;11.80;99.90;;;;;;5079317;28;20478;-48
2021/10/31 01:46:51;;;;;;;6.72;5.72;;;11.90;99.90;;;;;;5078951;28;20440;-50
2021/10/31 01:49:36;;;;;;;8.55;7.10;;;12.00;99.90;;;;;;5082792;28;20339;-46
2021/10/31 01:52:18;;;;;;;7.95;6.82;;;12.00;99.90;;;;;;5080534;28;20205;-53
2021/10/31 01:55:02;;;;;;;8.93;7.75;;;11.90;99.90;;;;;;5078880;28;20247;-54
2021/10/31 01:57:31;;;;;;;17.05;7.40;;;11.90;99.90;;;;;;5086729;28;20240;-49
2021/10/31 02:00:04;;;;;;;7.10;6.38;;;12.10;99.90;;;;;;5078860;28;20214;-51
2021/10/31 02:02:37;;;;;;;9.75;6.60;;;12.00;99.90;;;;;;5086476;28;20251;-47
2021/10/31 02:05:07;;;;;;;14.05;8.40;;;11.90;99.90;;;;;;5078442;28;20267;-53
2021/10/31 02:07:40;;;;;;;8.18;6.70;;;12.00;99.90;;;;;;5079544;28;20259;-47
2021/10/31 02:10:09;;;;;;;10.90;7.65;;;12.00;99.90;;;;;;5089074;28;20221;-49
2021/10/31 02:12:37;;;;;;;6.57;5.88;;;12.00;99.90;;;;;;5078532;28;20280;-47
2021/10/31 02:15:06;;;;;;;6.40;5.80;;;12.00;99.90;;;;;;5087721;28;20232;-52
2021/10/31 02:17:34;;;;;;;7.32;6.03;;;12.20;99.90;;;;;;5078584;28;20681;-49
2021/10/31 02:20:03;;;;;;;9.57;8.57;;;12.00;99.90;;;;;;5077981;28;20222;-50
2021/10/31 02:22:33;;;;;;;9.00;7.88;;;12.10;99.90;;;;;;5082639;28;20253;-48
2021/10/31 02:25:02;;;;;;;7.97;7.05;;;12.10;99.90;;;;;;5078189;28;20209;-51
2021/10/31 02:27:34;;;;;;;9.55;7.20;;;12.00;99.90;;;;;;5078286;28;20205;-49
2021/10/31 02:30:04;;;;;;;7.65;6.25;;;11.90;99.90;;;;;;5077649;28;20283;-50
2021/10/31 02:32:31;;;;;;;7.38;6.03;;;11.90;99.90;;;;;;5078567;28;20268;-53
2021/10/31 02:34:59;;;;;;;6.60;5.90;;;11.90;99.90;;;;;;5078811;28;20206;-49
2021/10/31 02:37:27;;;;;;;8.45;7.65;;;12.00;99.90;;;;;;5086642;28;20597;-49
2021/10/31 02:39:56;;;;;;;7.68;6.93;;;12.00;99.90;;;;;;5081924;28;20218;-45
2021/10/31 02:42:23;;;;;;;9.57;6.00;;;11.90;99.90;;;;;;5079929;28;20482;-51
2021/10/31 02:44:50;;;;;;;7.85;7.03;;;11.90;99.90;;;;;;5084745;28;20404;-50
2021/10/31 02:47:46;;;;;;;6.80;5.60;;;11.80;99.90;;;;;;5079669;28;20517;-54
2021/10/31 02:50:18;;;;;;;10.30;7.88;;;11.80;99.90;;;;;;5089185;28;20531;-48
2021/10/31 02:52:57;;;;;;;10.68;8.82;;;11.90;99.90;;;;;;5093428;28;20416;-52
2021/10/31 02:55:30;;;;;;;7.03;5.85;;;11.70;99.90;;;;;;5083638;28;20206;-53
2021/10/31 02:58:07;;;;;;;11.98;9.10;;;11.70;99.90;;;;;;5087325;28;20199;-54
2021/10/31 03:00:37;;;;;;;12.13;8.35;;;11.80;99.90;;;;;;5082333;28;20244;-52
2021/10/31 03:03:07;;;;;;;8.23;6.85;;;11.80;99.90;;;;;;5077603;28;20241;-52
2021/10/31 03:05:35;;;;;;;8.13;7.32;;;11.80;99.90;;;;;;5078717;28;20210;-49
2021/10/31 03:08:02;;;;;;;7.97;7.00;;;11.80;99.90;;;;;;5083054;28;20207;-52
2021/10/31 03:10:29;;;;;;;9.90;7.45;;;11.80;99.90;;;;;;5080500;28;20456;-49
2021/10/31 03:12:57;;;;;;;7.70;6.95;;;11.80;99.90;;;;;;5077915;28;20219;-50
2021/10/31 03:15:25;;;;;;;10.32;8.05;;;11.80;99.90;;;;;;5080402;28;20208;-53
2021/10/31 03:17:52;;;;;;;11.18;7.88;;;11.80;99.90;;;;;;5085073;28;20203;-47
2021/10/31 03:20:19;;;;;;;11.32;9.18;;;11.70;99.90;;;;;;5087621;28;20221;-48
2021/10/31 03:22:47;;;;;;;6.60;5.97;;;11.70;99.90;;;;;;5084394;28;20289;-52
2021/10/31 03:25:14;;;;;;;8.95;8.00;;;11.60;99.90;;;;;;5081823;28;20209;-49
2021/10/31 03:27:41;;;;;;;10.30;7.40;;;11.70;99.90;;;;;;5082175;28;20202;-43
2021/10/31 03:30:08;;;;;;;8.20;6.93;;;11.90;99.90;;;;;;5081197;28;20232;-51
2021/10/31 03:32:36;;;;;;;8.52;7.55;;;12.20;99.90;;;;;;5082549;28;20248;-49
2021/10/31 03:35:03;;;;;;;10.77;8.25;;;12.20;99.90;;;;;;5085660;28;20289;-49
2021/10/31 03:37:32;;;;;;;8.52;6.68;;;12.40;99.90;;;;;;5081856;28;20228;-49
2021/10/31 03:39:58;;;;;;;7.90;7.13;;;12.30;99.90;;;;;;5089044;28;20350;-47
2021/10/31 03:42:26;;;;;;;10.32;7.30;;;12.20;99.90;;;;;;5082085;28;20268;-50
2021/10/31 03:44:53;;;;;;;14.73;8.20;;;12.30;99.90;;;;;;5091452;28;20500;-50
2021/10/31 03:47:23;;;;;;;8.48;6.70;;;12.50;99.90;;;;;;5091598;28;20225;-48
2021/10/31 03:49:50;;;;;;;8.25;6.68;;;12.50;99.90;;;;;;5071639;28;20222;-50
2021/10/31 03:52:17;;;;;;;11.00;7.65;;;12.60;99.90;;;;;;5083880;28;20203;-46
2021/10/31 03:54:44;;;;;;;7.82;6.90;;;12.60;99.90;;;;;;5089354;28;20237;-49
2021/10/31 03:57:12;;;;;;;10.65;7.70;;;12.70;99.90;;;;;;5081497;28;20209;-47
2021/10/31 03:59:39;;;;;;;10.50;7.72;;;12.70;99.90;;;;;;5080801;28;20219;-50
2021/10/31 04:02:06;;;;;;;7.65;6.85;;;12.50;99.90;;;;;;5087030;28;20455;-49
2021/10/31 04:04:34;;;;;;;8.65;6.53;;;12.50;99.90;;;;;;5091518;28;20401;-48
2021/10/31 04:07:01;;;;;;;12.00;8.98;;;12.40;99.90;;;;;;5081463;28;20299;-53
2021/10/31 04:09:28;;;;;;;10.80;8.55;;;12.30;99.90;;;;;;5089040;28;20439;-54
2021/10/31 04:11:56;;;;;;;10.27;6.57;;;12.20;99.90;;;;;;5092441;28;20349;-54
2021/10/31 04:14:23;;;;;;;8.85;6.63;;;12.30;99.90;;;;;;5086760;28;20218;-49
2021/10/31 04:16:51;;;;;;;9.32;6.68;;;12.30;99.90;;;;;;5085112;28;20197;-48
2021/10/31 04:19:18;;;;;;;9.80;7.15;;;12.40;99.90;;;;;;5086485;28;20485;-49
2021/10/31 04:21:45;;;;;;;7.70;6.97;;;12.30;99.90;;;;;;5080523;28;20199;-47
2021/10/31 04:24:13;;;;;;;10.35;7.00;;;12.40;99.90;;;;;;5082769;28;20229;-51
2021/10/31 04:26:40;;;;;;;7.88;6.05;;;12.60;99.90;;;;;;5083233;28;20207;-48
2021/10/31 04:29:08;;;;;;;9.55;7.00;;;12.70;99.90;;;;;;5071669;28;20417;-50
2021/10/31 04:31:35;;;;;;;8.35;7.20;;;12.70;99.90;;;;;;5080515;28;20202;-49
2021/10/31 04:34:02;;;;;;;10.23;7.25;;;12.80;99.90;;;;;;5083857;28;20245;-52
2021/10/31 04:36:29;;;;;;;8.57;6.97;;;12.90;99.90;;;;;;5080577;28;20225;-52
2021/10/31 04:38:57;;;;;;;10.20;7.05;;;13.10;99.90;;;;;;5090653;28;20509;-49
2021/10/31 04:41:26;;;;;;;10.98;7.75;;;13.30;99.90;;;;;;5079952;28;20379;-48
2021/10/31 04:43:53;;;;;;;8.80;7.90;;;13.20;99.90;;;;;;5087444;28;20202;-49
2021/10/31 04:46:20;;;;;;;11.48;8.82;;;13.00;99.90;;;;;;5084811;28;20209;-47
2021/10/31 04:48:48;;;;;;;7.80;6.93;;;12.80;99.90;;;;;;5080122;28;20788;-43
2021/10/31 04:51:16;;;;;;;11.43;6.82;;;12.70;99.90;;;;;;5079610;28;20531;-49
2021/10/31 04:53:43;;;;;;;12.48;7.70;;;12.60;99.90;;;;;;5085429;28;20267;-54
2021/10/31 04:56:10;;;;;;;8.35;7.55;;;12.60;99.90;;;;;;5084887;28;20199;-50
2021/10/31 04:58:38;;;;;;;9.18;6.47;;;12.60;99.90;;;;;;5067651;28;20222;-50
2021/10/31 05:01:05;;;;;;;9.00;7.32;;;12.90;99.90;;;;;;5081243;28;20223;-53
2021/10/31 05:03:33;;;;;;;7.68;6.88;;;12.70;99.90;;;;;;5084695;28;20208;-46
2021/10/31 05:06:00;;;;;;;9.15;8.25;;;12.50;99.90;;;;;;5079942;28;20263;-48
2021/10/31 05:08:27;;;;;;;10.40;8.02;;;12.50;99.90;;;;;;5081614;28;20206;-47
2021/10/31 05:10:54;;;;;;;10.68;7.47;;;12.50;99.90;;;;;;5084066;28;20223;-48
2021/10/31 05:13:22;;;;;;;7.88;7.05;;;12.50;99.90;;;;;;5087186;28;20297;-42
2021/10/31 05:15:49;;;;;;;8.82;7.18;;;12.50;99.90;;;;;;5083197;28;20199;-50
2021/10/31 05:18:17;;;;;;;9.40;7.82;;;12.70;99.90;;;;;;5085203;28;20212;-50
2021/10/31 05:20:44;;;;;;;8.65;7.75;;;12.80;99.90;;;;;;5079733;28;20218;-52
2021/10/31 05:23:11;;;;;;;10.32;8.40;;;13.10;99.90;;;;;;5086141;28;20203;-51
2021/10/31 05:25:38;;;;;;;8.55;7.65;;;13.20;99.90;;;;;;5087216;28;20556;-49
2021/10/31 05:28:06;;;;;;;15.00;8.27;;;13.10;99.90;;;;;;5084456;28;20236;-52
2021/10/31 05:30:33;;;;;;;10.50;7.45;;;13.10;99.90;;;;;;5087143;28;20323;-50
2021/10/31 05:33:00;;;;;;;11.30;7.68;;;12.90;99.90;;;;;;5083253;28;20474;-54
2021/10/31 05:35:27;;;;;;;9.35;7.78;;;12.80;99.90;;;;;;5085261;28;20203;-48
2021/10/31 05:37:59;;;;;;;9.77;7.65;;;12.70;99.90;;;;;;5078435;28;20256;-46
2021/10/31 05:40:27;;;;;;;8.35;7.55;;;12.50;99.90;;;;;;5083981;28;20226;-46
2021/10/31 05:42:55;;;;;;;9.02;7.68;;;12.40;99.90;;;;;;5081019;28;20252;-51
2021/10/31 05:45:23;;;;;;;10.38;7.45;;;12.40;99.90;;;;;;5081450;28;20233;-44
2021/10/31 05:47:52;;;;;;;8.23;7.32;;;12.40;99.90;;;;;;5084311;28;20203;-47
2021/10/31 05:50:20;;;;;;;9.77;7.47;;;12.60;99.90;;;;;;5083664;28;20554;-49
2021/10/31 05:52:47;;;;;;;9.10;7.55;;;12.80;99.90;;;;;;5065848;28;20229;-53
2021/10/31 05:55:16;;;;;;;11.63;8.52;;;12.70;99.90;;;;;;5081523;28;20461;-50
2021/10/31 05:57:44;;;;;;;11.50;8.00;;;12.80;99.90;;;;;;5078889;28;20244;-52
2021/10/31 06:00:14;;;;;;;9.88;7.82;;;13.20;99.90;;;;;;5091357;28;20213;-48
2021/10/31 06:02:41;;;;;;;13.32;7.75;;;13.30;99.90;;;;;;5088928;28;20581;-53
2021/10/31 06:05:11;;;;;;;10.02;7.32;;;13.30;99.90;;;;;;5079049;28;20273;-52
2021/10/31 06:07:41;;;;;;;12.00;8.63;;;13.10;99.90;;;;;;5086812;28;20466;-49
2021/10/31 06:10:11;;;;;;;11.25;7.80;;;13.20;99.90;;;;;;5083435;28;20562;-48
2021/10/31 06:12:43;;;;;;;12.52;10.00;;;13.20;99.90;;;;;;5078908;28;20211;-50
2021/10/31 06:15:13;;;;;;;15.35;9.13;;;12.90;99.90;;;;;;5082390;28;20217;-50
2021/10/31 06:17:40;;;;;;;10.95;7.40;;;12.70;99.90;;;;;;5079234;28;20209;-47
2021/10/31 06:20:10;;;;;;;11.73;8.38;;;12.40;99.90;;;;;;5080742;28;20217;-53
2021/10/31 06:22:37;;;;;;;10.85;7.90;;;12.20;99.90;;;;;;5087729;28;20460;-52
2021/10/31 06:25:07;;;;;;;11.55;8.60;;;11.90;99.90;;;;;;5090763;28;20193;-54
2021/10/31 06:27:34;;;;;;;10.50;8.23;;;11.90;99.90;;;;;;5084067;28;20206;-51
2021/10/31 06:30:01;;;;;;;11.55;8.40;;;11.80;99.90;;;;;;5085463;28;20238;-54
2021/10/31 06:32:28;;;;;;;11.50;8.57;;;11.90;99.90;;;;;;5082846;28;20248;-51
2021/10/31 06:34:56;;;;;;;10.73;8.52;;;11.90;99.90;;;;;;5084811;28;20283;-50
2021/10/31 06:37:23;;;;;;;11.15;8.70;;;11.90;99.90;;;;;;5081496;28;20251;-51
2021/10/31 06:39:50;;;;;;;10.10;8.13;;;11.80;99.90;;;;;;5083832;28;20438;-48
2021/10/31 06:42:18;;;;;;;9.43;8.38;;;11.80;99.90;;;;;;5079475;28;20201;-48
2021/10/31 06:44:45;;;;;;;10.82;8.50;;;11.90;99.90;;;;;;5092207;28;20198;-46
2021/10/31 06:47:12;;;;;;;11.45;8.10;;;12.00;99.90;;;;;;5086146;28;20221;-49
2021/10/31 06:49:41;;;;;;;14.80;9.40;;;12.20;99.90;;;;;;5084352;28;20280;-49
2021/10/31 06:52:08;;;;;;;9.82;8.55;;;12.30;99.90;;;;;;5088230;28;20207;-49
2021/10/31 06:54:36;;;;;;;9.40;7.55;;;12.40;99.90;;;;;;5084859;28;20272;-51
2021/10/31 06:57:03;;;;;;;10.23;8.73;;;12.30;99.90;;;;;;5082064;28;20240;-51
2021/10/31 06:59:32;;;;;;;11.80;8.55;;;12.40;99.90;;;;;;5100009;28;20570;-49
2021/10/31 07:02:00;;;;;;;11.73;8.32;;;12.40;99.90;;;;;;5098832;28;20194;-47
2021/10/31 07:04:29;;;;;;;10.05;8.45;;;12.30;99.90;;;;;;5096023;28;20465;-51
2021/10/31 07:06:56;;;;;;;12.23;8.48;;;12.20;99.90;;;;;;5100313;28;20205;-51
2021/10/31 07:09:24;;;;;;;10.85;8.48;;;12.30;99.90;;;;;;5098751;28;20576;-51
2021/10/31 07:11:51;;;;;;;9.13;8.18;;;12.30;99.90;;;;;;5099486;28;20206;-48
2021/10/31 07:14:19;;;;;;;11.25;9.00;;;12.40;99.90;;;;;;5098236;28;20548;-51
2021/10/31 07:16:47;;;;;;;12.38;7.95;;;12.50;99.90;;;;;;5099722;28;20202;-48
2021/10/31 07:19:17;;;;;;;9.45;7.80;;;12.50;99.90;;;;;;5097582;28;20226;-43
2021/10/31 07:21:45;;;;;;;11.93;7.50;;;12.60;99.90;;;;;;5098979;28;20232;-49
2021/10/31 07:24:12;;;;;;;12.27;8.50;;;12.90;99.90;;;;;;5098806;28;20267;-51
2021/10/31 07:26:40;;;;;;;11.60;8.13;;;13.20;99.90;;;;;;5096624;28;20450;-50
2021/10/31 07:29:08;;;;;;;11.50;8.50;;;13.70;99.90;;;;;;5097243;28;20255;-49
2021/10/31 07:31:38;;;;;;;8.85;7.38;;;14.10;99.90;;;;;;5099426;28;20435;-49
2021/10/31 07:34:08;;;;;;;10.65;8.35;;;14.90;99.90;;;;;;5097465;28;20214;-50
2021/10/31 07:36:37;;;;;;;9.90;8.90;;;15.30;99.90;;;;;;5099015;28;20406;-48
2021/10/31 07:39:05;;;;;;;8.93;7.83;;;15.70;99.90;;;;;;5097217;28;20196;-53
2021/10/31 07:41:32;;;;;;;13.17;8.17;;;15.90;99.50;;;;;;5096638;28;20482;-51
2021/10/31 07:43:59;;;;;;;9.90;7.77;;;15.60;99.70;;;;;;5095002;28;20657;-46
2021/10/31 07:46:26;;;;;;;12.30;7.90;;;15.40;99.90;;;;;;5098077;28;20452;-49
2021/10/31 07:48:56;;;;;;;11.47;8.30;;;15.50;99.90;;;;;;5097984;28;20431;-48
2021/10/31 07:51:23;;;;;;;7.78;7.05;;;15.60;99.90;;;;;;5091789;28;20432;-49
2021/10/31 07:53:50;;;;;;;9.37;7.57;;;15.80;99.60;;;;;;5083518;28;20625;-47
2021/10/31 07:56:21;;;;;;;8.87;7.93;;;15.50;99.90;;;;;;5063388;28;20791;-47
2021/10/31 07:58:54;;;;;;;13.65;8.88;;;15.20;99.90;;;;;;5085815;28;20758;-50
2021/10/31 08:01:23;;;;;;;9.52;8.40;;;15.10;99.90;;;;;;5082592;28;20280;-48
2021/10/31 08:03:54;;;;;;;15.40;11.27;;;15.10;99.90;;;;;;5091753;28;20517;-49
2021/10/31 08:06:23;;;;;;;15.20;13.00;;;15.40;99.90;;;;;;5086174;28;20199;-49
2021/10/31 08:08:50;;;;;;;12.60;10.10;;;15.90;99.90;;;;;;5086661;28;20420;-51
2021/10/31 08:11:18;;;;;;;8.87;8.07;;;16.20;99.60;;;;;;5082621;28;20441;-47
2021/10/31 08:13:45;;;;;;;8.63;7.83;;;16.50;99.00;;;;;;5094272;28;20430;-49
2021/10/31 08:16:13;;;;;;;11.17;8.10;;;16.90;98.70;;;;;;5084330;28;20494;-48
2021/10/31 08:18:40;;;;;;;9.20;8.40;;;16.80;98.80;;;;;;5086439;28;20428;-49
2021/10/31 08:21:09;;;;;;;8.33;7.50;;;16.80;98.80;;;;;;5083221;28;20825;-49
2021/10/31 08:23:37;;;;;;;16.03;8.80;;;16.70;99.00;;;;;;5091736;28;20434;-49
2021/10/31 08:26:05;;;;;;;9.00;8.00;;;16.70;99.10;;;;;;5084937;28;20472;-53
2021/10/31 08:28:36;;;;;;;12.80;8.17;;;16.80;98.90;;;;;;5089120;28;20743;-51
2021/10/31 08:31:04;;;;;;;9.40;8.37;;;16.80;99.10;;;;;;5082333;28;20445;-47
2021/10/31 08:33:37;;;;;;;10.37;7.60;;;16.80;99.00;;;;;;5084977;28;20436;-48
2021/10/31 08:36:06;;;;;;;10.47;8.10;;;16.90;99.10;;;;;;5080619;28;20509;-55
2021/10/31 08:38:33;;;;;;;11.13;8.50;;;16.90;99.20;;;;;;5084025;28;20441;-48
2021/10/31 08:41:01;;;;;;;11.30;7.87;;;16.80;99.10;;;;;;5084431;28;20478;-49
2021/10/31 08:43:30;;;;;;;9.73;8.00;;;16.70;99.30;;;;;;5082587;28;20428;-47
2021/10/31 08:45:57;;;;;;;8.00;7.10;;;16.60;99.50;;;;;;5081623;28;20430;-48
2021/10/31 08:48:25;;;;;;;9.20;8.30;;;16.50;99.70;;;;;;5081139;28;20505;-51
2021/10/31 08:50:52;;;;;;;9.30;8.27;;;16.40;99.90;;;;;;5082743;28;20470;-50
2021/10/31 08:53:26;;;;;;;10.90;7.47;;;16.50;99.90;;;;;;5088241;28;20502;-46
2021/10/31 08:55:54;;;;;;;9.10;7.33;;;16.80;99.70;;;;;;5081713;28;20525;-46
2021/10/31 08:58:22;;;;;;;10.60;8.90;;;17.20;99.50;;;;;;5070708;28;20427;-47
2021/10/31 09:00:48;;;;;;;9.30;7.40;;;17.30;99.30;;;;;;5086367;28;20466;-49
2021/10/31 09:03:18;;;;;;;10.07;8.07;;;17.60;98.80;;;;;;5079846;28;20438;-52
2021/10/31 09:05:45;;;;;;;11.70;7.33;;;18.00;98.10;;;;;;5084746;28;20432;-52
2021/10/31 09:08:12;;;;;;;9.03;7.93;;;18.20;97.90;;;;;;5089201;28;20452;-46
2021/10/31 09:10:40;;;;;;;7.17;6.47;;;18.50;97.40;;;;;;5093428;28;20488;-50
2021/10/31 09:13:07;;;;;;;6.80;5.90;;;18.70;97.50;;;;;;5099173;28;20476;-58
2021/10/31 09:15:35;;;;;;;5.97;5.37;;;18.90;96.70;;;;;;5088126;28;20500;-48
2021/10/31 09:18:05;;;;;;;8.23;6.27;;;18.80;96.30;;;;;;5085656;28;20438;-49
2021/10/31 09:20:34;;;;;;;7.90;6.23;;;18.90;96.20;;;;;;5082094;28;20442;-53
2021/10/31 09:23:05;;;;;;;7.67;6.53;;;19.00;95.90;;;;;;5081255;28;20429;-53
2021/10/31 09:25:33;;;;;;;10.67;6.30;;;19.20;95.20;;;;;;5080643;28;20410;-54
2021/10/31 09:28:02;;;;;;;6.20;5.67;;;19.50;94.90;;;;;;5080043;28;20796;-49
2021/10/31 09:30:32;;;;;;;9.43;6.47;;;19.60;94.20;;;;;;5079787;28;20545;-50
2021/10/31 09:33:03;;;;;;;7.03;6.40;;;19.70;94.70;;;;;;5079138;28;20410;-52
2021/10/31 09:35:35;;;;;;;7.30;6.40;;;19.90;94.40;;;;;;5081260;28;20551;-52
2021/10/31 09:38:05;;;;;;;8.60;6.03;;;20.10;94.40;;;;;;5081124;28;20554;-48
2021/10/31 09:40:34;;;;;;;12.60;6.77;;;20.20;94.10;;;;;;5084837;28;20468;-49
2021/10/31 09:43:04;;;;;;;9.43;6.83;;;20.00;93.60;;;;;;5080373;28;20456;-52
2021/10/31 09:45:34;;;;;;;10.43;6.50;;;19.70;94.00;;;;;;5080271;28;20421;-48
2021/10/31 09:48:05;;;;;;;7.23;6.30;;;19.90;94.20;;;;;;5079760;28;20414;-49
2021/10/31 09:50:36;;;;;;;9.77;7.93;;;19.90;93.80;;;;;;5082423;28;20673;-50
2021/10/31 09:53:05;;;;;;;7.13;6.50;;;20.00;93.40;;;;;;5079509;28;20519;-49
2021/10/31 09:55:35;;;;;;;8.67;6.33;;;20.10;93.30;;;;;;5081034;28;20561;-54
2021/10/31 09:58:06;;;;;;;7.03;6.33;;;20.20;92.80;;;;;;5080400;28;20472;-52
2021/10/31 10:00:39;;;;;;;7.60;6.60;;;20.00;92.90;;;;;;5080006;28;20702;-47
2021/10/31 10:03:34;;;;;;;7.53;6.73;;;19.80;93.40;;;;;;5067596;28;20401;-51
2021/10/31 10:06:15;;;;;;;8.20;6.87;;;19.80;93.50;;;;;;5080461;28;20434;-49
2021/10/31 10:09:00;;;;;;;6.53;5.00;;;19.80;93.30;;;;;;5079597;28;20457;-47
2021/10/31 10:11:30;;;;;;;6.70;5.23;;;19.70;93.10;;;;;;5081513;28;20511;-48
2021/10/31 10:14:25;;;;;;;8.07;5.83;;;19.70;93.40;;;;;;5078377;28;20452;-53
2021/10/31 10:16:57;;;;;;;9.03;6.50;;;19.80;93.30;;;;;;5081425;28;20371;-51
2021/10/31 10:19:29;;;;;;;5.47;4.97;;;20.00;92.50;;;;;;5078300;28;20501;-51
2021/10/31 10:22:08;;;;;;;14.80;6.33;;;19.90;91.60;;;;;;5082624;28;20424;-50
2021/10/31 10:24:40;;;;;;;6.60;5.90;;;19.70;91.40;;;;;;5083136;28;20458;-48
2021/10/31 10:27:08;;;;;;;6.70;6.07;;;19.70;91.70;;;;;;5083763;28;20436;-53
2021/10/31 10:29:39;;;;;;;7.63;6.50;;;19.70;91.70;;;;;;5082918;28;20636;-50
2021/10/31 10:32:12;;;;;;;7.00;6.07;;;19.90;91.80;;;;;;5082923;28;20409;-48
2021/10/31 10:34:49;;;;;;;7.10;5.70;;;20.20;91.90;;;;;;5085283;28;20457;-45
2021/10/31 10:37:21;;;;;;;6.43;5.50;;;20.30;91.30;;;;;;5074802;28;20443;-49
2021/10/31 10:39:54;;;;;;;6.70;5.37;;;20.20;90.80;;;;;;5086610;28;20476;-47
2021/10/31 10:42:31;;;;;;;6.77;6.17;;;20.00;90.50;;;;;;5084736;28;20455;-53
2021/10/31 10:45:10;;;;;;;7.97;5.50;;;19.90;90.80;;;;;;5083226;28;20469;-50
2021/10/31 10:47:48;;;;;;;8.63;5.60;;;19.90;90.70;;;;;;5083004;28;20488;-48
2021/10/31 10:50:21;;;;;;;5.40;4.90;;;20.00;90.70;;;;;;5082218;28;20459;-48
2021/10/31 10:52:52;;;;;;;7.07;6.13;;;20.00;90.60;;;;;;5083173;28;20456;-52
2021/10/31 10:55:28;;;;;;;4.93;4.60;;;20.10;90.50;;;;;;5084367;28;20530;-48
2021/10/31 10:58:02;;;;;;;5.70;5.20;;;20.00;90.20;;;;;;5083854;28;20445;-52
2021/10/31 11:00:42;;;;;;;5.20;4.70;;;19.90;90.70;;;;;;5082875;28;20693;-49
2021/10/31 11:03:17;;;;;;;8.63;6.57;;;19.70;90.50;;;;;;5083001;28;20434;-50
2021/10/31 11:05:50;;;;;;;6.33;5.53;;;19.70;90.60;;;;;;5082098;28;20459;-53
2021/10/31 11:08:25;;;;;;;6.30;5.70;;;19.80;90.70;;;;;;5084325;28;20775;-52
2021/10/31 11:10:58;;;;;;;6.87;4.90;;;19.80;90.30;;;;;;5082818;28;20683;-47
2021/10/31 11:13:28;;;;;;;5.40;5.00;;;19.80;90.60;;;;;;5083882;28;20403;-51
2021/10/31 11:15:59;;;;;;;7.23;5.90;;;19.80;90.40;;;;;;5082166;28;20447;-54
2021/10/31 11:18:26;;;;;;;5.13;4.70;;;19.80;90.60;;;;;;5084572;28;20464;-51
2021/10/31 11:20:54;;;;;;;6.00;5.30;;;19.90;90.30;;;;;;5083975;28;20458;-47
2021/10/31 11:23:22;;;;;;;6.07;5.10;;;20.00;90.40;;;;;;5085085;28;20443;-52
2021/10/31 11:25:51;;;;;;;7.63;6.17;;;20.10;90.10;;;;;;5083873;28;20411;-50
2021/10/31 11:28:20;;;;;;;6.67;6.03;;;20.30;89.70;;;;;;5085417;28;20766;-52
2021/10/31 11:30:50;;;;;;;6.00;4.90;;;20.20;89.10;;;;;;5084182;28;20479;-51
2021/10/31 11:33:17;;;;;;;7.80;5.80;;;20.10;90.00;;;;;;5083186;28;20491;-52
2021/10/31 11:35:44;;;;;;;6.07;5.43;;;20.10;89.90;;;;;;5080722;28;20526;-48
2021/10/31 11:40:57;;;;;;;7.83;5.57;;;20.20;90.00;;;;;;5106927;22;20461;-57
2021/10/31 11:43:30;;;;;;;5.73;5.30;;;20.10;89.80;;;;;;5089130;28;20646;-53
2021/10/31 11:45:58;;;;;;;6.80;5.23;;;20.00;89.40;;;;;;5090884;28;20435;-55
2021/10/31 11:48:34;;;;;;;6.07;5.53;;;20.10;89.90;;;;;;5086194;28;20748;-54
2021/10/31 11:51:01;;;;;;;9.07;5.00;;;20.00;90.00;;;;;;5083539;28;20410;-55
2021/10/31 11:53:42;;;;;;;8.53;6.40;;;20.00;90.20;;;;;;5083236;28;20410;-54
2021/10/31 11:56:16;;;;;;;6.13;5.33;;;20.00;89.90;;;;;;5083257;28;20499;-54
2021/10/31 11:58:55;;;;;;;5.93;5.33;;;20.00;89.40;;;;;;5081648;28;20456;-52
2021/10/31 12:01:46;;;;;;;7.30;5.53;;;20.00;89.60;;;;;;5074301;28;20485;-55
2021/10/31 12:04:37;;;;;;;5.00;4.60;;;19.90;90.00;;;;;;5083386;28;20439;-55
2021/10/31 12:07:38;;;;;;;8.53;6.37;;;19.90;90.00;;;;;;5082889;28;20424;-54
2021/10/31 12:10:28;;;;;;;6.20;5.60;;;19.70;90.40;;;;;;5082000;28;20536;-52
2021/10/31 12:13:12;;;;;;;7.57;5.90;;;19.70;90.50;;;;;;5082067;28;20748;-55
2021/10/31 12:15:39;;;;;;;6.63;5.97;;;19.70;90.70;;;;;;5080568;28;20506;-54
2021/10/31 12:18:08;;;;;;;6.20;5.10;;;19.50;90.60;;;;;;5082414;28;20405;-57
2021/10/31 12:20:48;;;;;;;6.40;5.80;;;19.50;90.60;;;;;;5082453;28;20456;-55
2021/10/31 12:23:24;;;;;;;5.67;4.77;;;19.40;90.80;;;;;;5083746;28;20647;-53
2021/10/31 12:25:52;;;;;;;5.20;4.80;;;19.40;90.90;;;;;;5083365;28;20435;-54
2021/10/31 12:28:49;;;;;;;6.60;5.67;;;19.30;91.00;;;;;;5081711;28;20469;-57
2021/10/31 12:31:25;;;;;;;6.57;5.97;;;19.20;90.70;;;;;;5071833;28;20482;-54
2021/10/31 12:34:08;;;;;;;6.70;6.00;;;19.20;90.70;;;;;;5080099;28;20422;-54
2021/10/31 12:36:39;;;;;;;6.73;5.40;;;19.10;91.00;;;;;;5085115;28;20456;-55
2021/10/31 12:39:24;;;;;;;6.90;6.17;;;19.10;91.30;;;;;;5084243;28;20448;-58
2021/10/31 12:42:14;;;;;;;6.20;5.60;;;19.10;91.40;;;;;;5082849;28;20422;-59
2021/10/31 12:44:44;;;;;;;6.57;5.93;;;19.00;91.20;;;;;;5081197;28;20431;-54
2021/10/31 12:47:16;;;;;;;6.20;5.60;;;19.10;91.70;;;;;;5082291;28;20492;-54
2021/10/31 12:49:46;;;;;;;11.37;7.30;;;19.00;91.70;;;;;;5081951;28;20422;-55
2021/10/31 12:52:27;;;;;;;11.10;9.60;;;18.90;91.80;;;;;;5083007;28;20781;-54
2021/10/31 12:54:56;;;;;;;10.77;9.53;;;18.90;92.00;;;;;;5083691;28;20423;-59
2021/10/31 12:57:25;;;;;;;22.03;13.90;;;18.90;92.20;;;;;;5084339;28;20624;-52
2021/10/31 12:59:55;;;;;;;16.57;12.30;;;18.90;92.20;;;;;;5087932;28;20490;-61
2021/10/31 13:02:25;;;;;;;14.00;10.10;;;18.90;92.00;;;;;;5080383;28;20485;-52
2021/10/31 13:04:58;;;;;;;12.43;6.40;;;18.90;91.80;;;;;;5081045;28;20648;-53